Time;durP1;ratioP1;P1;durP2;ratioP2;P2;SDS_P1;SDS_P2;PMS_P1;PMS_P2;Temp;Humidity;BMP_temperature;BMP_pressure;BME280_temperature;BME280_humidity;BME280_pressure;Samples;Min_cycle;Max_cycle;Signal;HPM_P1;HPM_P2
2022/12/19 00:00:50;;;;;;;50.35;27.40;;;;;;;-0.28;100.00;66749.28;4998725;28;20520;-86
2022/12/19 00:03:15;;;;;;;38.45;21.60;;;;;;;-0.29;100.00;66748.13;5002198;28;20054;-86
2022/12/19 00:05:41;;;;;;;52.13;28.85;;;;;;;-0.28;100.00;66744.59;4990788;28;20043;-86
2022/12/19 00:08:12;;;;;;;47.17;26.80;;;;;;;;;;5000786;28;20037;-85
2022/12/19 00:10:37;;;;;;;47.10;25.05;;;;;;;;;;4998935;28;20084;-85
2022/12/19 00:13:02;;;;;;;45.50;24.00;;;;;;;-0.24;100.00;66756.94;4990149;28;20513;-85
2022/12/19 00:15:28;;;;;;;50.65;28.95;;;;;;;-0.23;100.00;66754.91;4994960;28;20661;-85
2022/12/19 00:17:53;;;;;;;53.53;30.75;;;;;;;;;;4995549;28;21541;-85
2022/12/19 00:20:18;;;;;;;48.90;26.15;;;;;;;-0.18;100.00;66759.94;5017069;28;20045;-84
2022/12/19 00:22:44;;;;;;;52.28;27.98;;;;;;;;;;5010184;28;20057;-85
2022/12/19 00:25:09;;;;;;;49.80;27.27;;;;;;;-0.17;100.00;66761.06;4994758;28;20049;-85
2022/12/19 00:27:35;;;;;;;47.38;24.02;;;;;;;-0.14;100.00;66767.06;5001577;28;20062;-85
2022/12/19 00:30:00;;;;;;;49.63;25.25;;;;;;;;;;5010329;28;20056;-85
2022/12/19 00:32:25;;;;;;;54.03;29.15;;;;;;;;;;5006675;28;20038;-85
2022/12/19 00:34:51;;;;;;;48.72;25.10;;;;;;;;;;5005129;28;20069;-85
2022/12/19 00:37:16;;;;;;;55.03;27.92;;;;;;;;;;5006965;28;20046;-85
2022/12/19 00:39:41;;;;;;;51.47;27.23;;;;;;;-0.03;100.00;66776.78;5007626;28;20045;-85
2022/12/19 00:42:07;;;;;;;47.35;26.08;;;;;;;0.02;100.00;66784.47;4996887;28;20122;-85
2022/12/19 00:44:32;;;;;;;44.42;26.67;;;;;;;;;;4987493;28;20053;-86
2022/12/19 00:46:57;;;;;;;56.17;31.30;;;;;;;;;;4987102;28;20039;-85
2022/12/19 00:49:22;;;;;;;46.03;27.08;;;;;;;0.08;100.00;66783.38;4987521;28;20038;-85
2022/12/19 00:51:48;;;;;;;51.50;28.15;;;;;;;0.09;100.00;66789.75;4978524;28;20038;-86
2022/12/19 00:54:14;;;;;;;43.20;21.75;;;;;;;0.11;100.00;66791.97;4987971;28;20842;-86
2022/12/19 00:56:39;;;;;;;52.20;28.33;;;;;;;0.13;100.00;66789.56;4988055;28;20098;-86
2022/12/19 00:59:05;;;;;;;48.50;22.48;;;;;;;;;;4996504;28;20125;-85
2022/12/19 01:01:32;;;;;;;50.08;26.67;;;;;;;;;;5007862;28;20153;-85
2022/12/19 01:03:58;;;;;;;39.65;20.35;;;;;;;;;;5006815;28;20803;-86
2022/12/19 01:06:25;;;;;;;53.28;29.30;;;;;;;0.25;100.00;66807.16;5006147;28;20118;-85
2022/12/19 01:08:51;;;;;;;49.35;26.17;;;;;;;0.26;100.00;66808.88;5006851;28;20038;-86
2022/12/19 01:11:17;;;;;;;52.97;26.95;;;;;;;0.28;100.00;66810.53;4988792;28;20045;-85
2022/12/19 01:13:42;;;;;;;53.22;30.55;;;;;;;0.30;100.00;66812.78;4986969;28;20050;-85
2022/12/19 01:16:09;;;;;;;47.10;25.92;;;;;;;;;;4993641;28;20042;-85
2022/12/19 01:18:35;;;;;;;56.03;30.30;;;;;;;;;;4989688;28;20042;-85
2022/12/19 01:21:03;;;;;;;53.22;30.42;;;;;;;0.36;100.00;66820.09;4997039;28;20038;-86
2022/12/19 01:23:29;;;;;;;50.22;26.42;;;;;;;0.39;100.00;66822.91;5003655;28;20076;-85
2022/12/19 01:25:55;;;;;;;47.70;27.92;;;;;;;0.40;100.00;66824.03;4990553;28;20065;-85
2022/12/19 01:28:20;;;;;;;50.42;28.20;;;;;;;;;;4999270;28;20038;-85
2022/12/19 01:30:46;;;;;;;50.35;27.05;;;;;;;0.44;100.00;66833.78;5004783;28;20048;-85
2022/12/19 01:33:14;;;;;;;49.15;25.13;;;;;;;0.47;100.00;66831.91;5020159;28;20121;-86
2022/12/19 01:35:40;;;;;;;47.83;25.27;;;;;;;0.50;100.00;66834.72;5024884;28;20073;-85
2022/12/19 01:38:06;;;;;;;46.40;24.50;;;;;;;0.52;100.00;66837.53;5041588;28;20093;-85
2022/12/19 01:40:31;;;;;;;48.10;26.65;;;;;;;;;;5026847;28;20048;-85
2022/12/19 01:42:56;;;;;;;48.63;25.67;;;;;;;;;;5028004;28;20076;-84
2022/12/19 01:45:28;;;;;;;55.40;32.08;;;;;;;0.56;100.00;66841.47;5009249;28;20049;-85
2022/12/19 01:48:10;;;;;;;49.28;28.02;;;;;;;0.54;100.00;66833.97;5005305;28;20046;-84
2022/12/19 01:50:58;;;;;;;40.65;22.10;;;;;;;;;;5002049;28;20042;-85
2022/12/19 01:53:27;;;;;;;49.75;27.10;;;;;;;0.55;100.00;66835.13;5009095;28;20051;-84
2022/12/19 01:55:54;;;;;;;56.83;30.23;;;;;;;0.55;100.00;66840.91;5020033;28;20430;-84
2022/12/19 01:58:19;;;;;;;46.38;22.15;;;;;;;0.57;100.00;66843.16;4990705;28;20042;-84
2022/12/19 02:00:45;;;;;;;46.88;23.42;;;;;;;;;;4988220;28;20491;-83
2022/12/19 02:03:14;;;;;;;50.47;28.13;;;;;;;;;;4990310;28;20053;-84
2022/12/19 02:05:39;;;;;;;47.78;27.13;;;;;;;;;;4994338;28;20104;-83
2022/12/19 02:08:05;;;;;;;58.78;30.55;;;;;;;0.66;100.00;66847.47;4990256;28;20046;-84
2022/12/19 02:10:30;;;;;;;49.20;24.17;;;;;;;0.68;100.00;66855.53;5003126;28;20043;-83
2022/12/19 02:12:55;;;;;;;56.50;28.23;;;;;;;;;;4999881;28;20038;-84
2022/12/19 02:15:21;;;;;;;51.35;25.83;;;;;;;0.74;100.00;66856.47;4995301;28;20046;-85
2022/12/19 02:17:49;;;;;;;59.53;29.90;;;;;;;;;;4991055;28;20049;-83
2022/12/19 02:20:50;;;;;;;60.40;32.38;;;;;;;0.79;100.00;66867.34;4993025;28;20076;-83
2022/12/19 02:23:59;;;;;;;58.00;30.17;;;;;;;0.79;100.00;66866.78;4989075;28;20126;-83
2022/12/19 02:26:57;;;;;;;53.03;27.38;;;;;;;0.78;100.00;66868.28;5008057;28;20038;-84
2022/12/19 02:29:41;;;;;;;58.38;28.33;;;;;;;;;;5023866;28;20073;-84
2022/12/19 02:32:12;;;;;;;55.10;29.00;;;;;;;;;;5012430;28;20042;-83
2022/12/19 02:34:55;;;;;;;66.05;33.78;;;;;;;;;;5000044;28;20487;-83
2022/12/19 02:37:24;;;;;;;66.68;33.45;;;;;;;;;;4988368;28;20074;-83
2022/12/19 02:40:00;;;;;;;63.00;36.97;;;;;;;;;;5003759;28;20070;-83
2022/12/19 02:42:29;;;;;;;51.17;26.85;;;;;;;0.96;100.00;66885.34;5000349;28;20037;-83
2022/12/19 02:44:54;;;;;;;;;;;;;;;;;;5005021;28;20034;-83
2022/12/19 02:47:20;;;;;;;62.22;32.63;;;;;;;;;;4992235;28;19914;-83
2022/12/19 02:49:45;;;;;;;56.13;30.73;;;;;;;1.01;100.00;66894.16;4992392;28;20042;-84
2022/12/19 02:52:20;;;;;;;58.40;32.65;;;;;;;1.09;100.00;66899.97;4992259;28;20042;-84
2022/12/19 02:54:51;;;;;;;58.10;29.63;;;;;;;1.14;100.00;66900.38;5005150;28;20050;-83
2022/12/19 02:57:32;;;;;;;53.58;25.50;;;;;;;1.24;100.00;66911.63;4999125;28;20045;-84
2022/12/19 03:00:09;;;;;;;63.70;35.30;;;;;;;1.26;100.00;66919.09;5012615;28;20034;-84
2022/12/19 03:02:40;;;;;;;61.03;33.28;;;;;;;;;;5004333;28;20049;-85
2022/12/19 03:05:09;;;;;;;60.20;33.20;;;;;;;;;;4993946;28;20042;-84
2022/12/19 03:07:48;;;;;;;50.67;26.38;;;;;;;1.34;100.00;66922.31;4999161;28;20096;-84
2022/12/19 03:10:35;;;;;;;60.83;31.33;;;;;;;1.36;100.00;66924.56;5012913;28;20705;-84
2022/12/19 03:13:11;;;;;;;60.38;33.38;;;;;;;1.38;100.00;66932.06;5001618;28;20042;-84
2022/12/19 03:15:38;;;;;;;60.15;33.97;;;;;;;1.41;100.00;66929.63;5003609;28;20461;-83
2022/12/19 03:18:03;;;;;;;58.58;30.25;;;;;;;1.45;100.00;66939.94;5003070;28;20046;-83
2022/12/19 03:20:42;;;;;;;60.30;34.55;;;;;;;1.50;100.00;66937.72;5012962;28;20374;-84
2022/12/19 03:23:07;;;;;;;59.20;28.83;;;;;;;;;;5027644;28;20545;-84
2022/12/19 03:25:34;;;;;;;62.33;32.00;;;;;;;1.55;100.00;66945.97;5002974;28;20129;-83
2022/12/19 03:28:05;;;;;;;62.03;34.65;;;;;;;1.57;100.00;66952.88;5006187;28;20053;-84
2022/12/19 03:30:33;;;;;;;61.28;36.17;;;;;;;1.62;100.00;66952.72;5009847;28;20396;-83
2022/12/19 03:32:59;;;;;;;57.67;29.80;;;;;;;;;;5000409;28;20133;-83
2022/12/19 03:35:28;;;;;;;53.05;28.15;;;;;;;1.71;100.00;66962.84;5000777;28;20574;-83
2022/12/19 03:38:01;;;;;;;61.83;34.28;;;;;;;1.75;100.00;66967.91;5013313;28;20124;-83
2022/12/19 03:40:27;;;;;;;56.80;32.15;;;;;;;1.81;100.00;66974.09;5008111;28;20042;-83
2022/12/19 03:43:08;;;;;;;54.03;26.52;;;;;;;1.85;100.00;66978.06;5007592;28;20125;-82
2022/12/19 03:45:56;;;;;;;56.00;31.10;;;;;;;1.87;100.00;66986.13;4994520;28;20046;-83
2022/12/19 03:48:28;;;;;;;58.67;33.97;;;;;;;;;;5003855;28;20133;-83
2022/12/19 03:50:54;;;;;;;50.50;25.85;;;;;;;;;;4999956;28;20103;-83
2022/12/19 03:53:44;;;;;;;48.83;28.83;;;;;;;1.97;100.00;66991.56;5002942;28;20727;-83
2022/12/19 03:56:14;;;;;;;60.83;37.22;;;;;;;;;;5005568;28;20568;-82
2022/12/19 03:58:46;;;;;;;43.92;22.80;;;;;;;2.05;100.00;67005.28;5007031;28;20092;-83
2022/12/19 04:01:12;;;;;;;52.13;25.58;;;;;;;2.09;100.00;67005.06;5002170;28;20038;-82
2022/12/19 04:03:37;;;;;;;61.60;32.78;;;;;;;2.11;100.00;67006.78;4997457;28;20083;-83
2022/12/19 04:06:04;;;;;;;56.92;29.02;;;;;;;2.14;100.00;67015.97;4989985;28;20121;-82
2022/12/19 04:08:31;;;;;;;46.65;24.75;;;;;;;2.19;100.00;67021.59;4990768;28;20053;-82
2022/12/19 04:11:02;;;;;;;43.03;22.17;;;;;;;2.22;100.00;67019.72;4995726;28;20121;-82
2022/12/19 04:13:35;;;;;;;45.38;22.38;;;;;;;;;;4993441;28;20042;-82
2022/12/19 04:16:19;;;;;;;50.97;28.25;;;;;;;2.28;100.00;67031.19;5004663;28;20531;-82
2022/12/19 04:18:46;;;;;;;52.55;29.83;;;;;;;;;;5019249;28;20041;-82
2022/12/19 04:21:17;;;;;;;48.92;27.42;;;;;;;2.35;100.00;67033.25;5007291;28;20124;-83
2022/12/19 04:23:49;;;;;;;48.30;26.73;;;;;;;2.43;100.00;67042.81;5009540;28;20497;-83
2022/12/19 04:26:15;;;;;;;55.30;31.45;;;;;;;;;;4995556;28;20038;-82
2022/12/19 04:28:51;;;;;;;38.85;18.88;;;;;;;2.46;100.00;67046.19;5011607;28;20041;-82
2022/12/19 04:31:17;;;;;;;47.72;26.65;;;;;;;;;;5006644;28;20069;-82
2022/12/19 04:33:43;;;;;;;44.17;26.88;;;;;;;2.47;100.00;67052.00;5011218;28;20125;-82
2022/12/19 04:36:09;;;;;;;52.10;31.20;;;;;;;2.46;100.00;67050.88;5001369;28;20469;-83
2022/12/19 04:38:35;;;;;;;51.80;27.63;;;;;;;2.53;100.00;67060.84;5002387;28;20061;-83
2022/12/19 04:41:00;;;;;;;52.47;26.63;;;;;;;2.70;100.00;67069.47;4998024;28;20494;-82
2022/12/19 04:43:26;;;;;;;52.45;31.05;;;;;;;2.66;100.00;67068.16;4997964;28;20038;-84
2022/12/19 04:45:51;;;;;;;55.75;32.55;;;;;;;;;;4995629;28;20572;-82
2022/12/19 04:48:16;;;;;;;53.30;27.42;;;;;;;2.64;100.00;67065.91;4998949;28;20042;-83
2022/12/19 04:50:42;;;;;;;42.65;21.08;;;;;;;;;;4998050;28;20038;-83
2022/12/19 04:53:07;;;;;;;46.03;21.50;;;;;;;;;;4998688;28;20046;-83
2022/12/19 04:55:32;;;;;;;50.08;24.73;;;;;;;2.68;100.00;67075.69;4998667;28;20034;-85
2022/12/19 04:57:57;;;;;;;48.97;23.98;;;;;;;;;;4999348;28;20068;-83
2022/12/19 05:00:23;;;;;;;47.65;23.58;;;;;;;;;;5005687;28;20107;-83
2022/12/19 05:02:48;;;;;;;52.47;29.90;;;;;;;2.73;100.00;67075.50;5000551;28;20092;-84
2022/12/19 05:05:13;;;;;;;50.97;32.38;;;;;;;;;;4991094;28;20062;-83
2022/12/19 05:07:39;;;;;;;45.65;25.75;;;;;;;;;;5005029;28;20112;-83
2022/12/19 05:10:05;;;;;;;50.22;27.85;;;;;;;2.83;100.00;67086.78;5003484;28;20052;-83
2022/12/19 05:12:31;;;;;;;39.28;19.42;;;;;;;2.88;100.00;67091.84;4996601;28;20042;-83
2022/12/19 05:14:56;;;;;;;60.15;33.17;;;;;;;2.86;100.00;67087.53;4989961;28;20526;-83
2022/12/19 05:17:21;;;;;;;52.03;27.67;;;;;;;2.87;100.00;67095.97;4991707;28;20046;-84
2022/12/19 05:19:47;;;;;;;59.25;32.45;;;;;;;;;;4993315;28;22349;-84
2022/12/19 05:22:12;;;;;;;54.30;31.58;;;;;;;;;;5009589;28;20111;-85
2022/12/19 05:24:38;;;;;;;46.10;22.40;;;;;;;2.92;100.00;67096.91;5010940;28;20056;-85
2022/12/19 05:27:03;;;;;;;44.42;22.55;;;;;;;2.92;100.00;67093.72;4997114;28;20210;-84
2022/12/19 05:29:28;;;;;;;58.20;33.45;;;;;;;;;;4995851;28;20121;-84
2022/12/19 05:31:54;;;;;;;54.53;26.17;;;;;;;2.91;100.00;67095.22;5012397;28;20425;-84
2022/12/19 05:34:19;;;;;;;61.88;34.08;;;;;;;2.89;100.00;67092.97;5012619;28;20460;-84
2022/12/19 05:36:45;;;;;;;57.40;30.77;;;;;;;2.90;100.00;67099.91;5009472;28;20697;-84
2022/12/19 05:39:10;;;;;;;57.60;30.83;;;;;;;;;;5010689;28;20038;-84
2022/12/19 05:41:36;;;;;;;68.78;35.47;;;;;;;2.89;100.00;67093.53;5014032;28;20038;-84
2022/12/19 05:44:01;;;;;;;66.05;39.00;;;;;;;2.91;100.00;67101.06;5001280;28;20133;-85
2022/12/19 05:46:26;;;;;;;63.42;32.53;;;;;;;;;;5010748;28;20033;-84
2022/12/19 05:48:52;;;;;;;62.30;33.88;;;;;;;3.01;100.00;67103.31;5010405;28;20510;-84
2022/12/19 05:51:18;;;;;;;59.75;32.95;;;;;;;3.05;100.00;67120.94;5012372;28;20046;-84
2022/12/19 05:53:44;;;;;;;67.85;40.38;;;;;;;3.13;100.00;67120.03;5004660;28;20053;-84
2022/12/19 05:56:12;;;;;;;63.45;35.78;;;;;;;3.16;100.00;67128.69;5012819;28;20093;-86
2022/12/19 05:58:38;;;;;;;58.85;30.40;;;;;;;;;;5023605;28;20053;-85
2022/12/19 06:01:08;;;;;;;62.63;33.13;;;;;;;;;;5014492;28;20046;-86
2022/12/19 06:03:33;;;;;;;59.85;33.20;;;;;;;3.16;100.00;67123.41;5014497;28;20030;-86
2022/12/19 06:06:02;;;;;;;64.10;28.17;;;;;;;;;;5014599;28;20018;-86
2022/12/19 06:08:28;;;;;;;73.68;41.58;;;;;;;3.20;100.00;67127.38;5018319;28;20075;-84
2022/12/19 06:10:53;;;;;;;59.72;33.58;;;;;;;3.23;100.00;67135.44;5005605;28;20042;-83
2022/12/19 06:13:18;;;;;;;72.38;37.50;;;;;;;;;;5017701;28;20107;-84
2022/12/19 06:15:44;;;;;;;69.13;34.72;;;;;;;3.30;100.00;67143.88;4999235;28;20577;-83
2022/12/19 06:18:09;;;;;;;81.80;47.38;;;;;;;3.35;100.00;67144.28;4996458;28;20660;-84
2022/12/19 06:20:34;;;;;;;83.28;44.55;;;;;;;;;;5000900;28;20042;-84
2022/12/19 06:22:59;;;;;;;69.30;39.38;;;;;;;3.43;100.00;67149.53;5014334;28;21415;-84
2022/12/19 06:25:25;;;;;;;72.55;36.22;;;;;;;3.46;100.00;67163.44;5005724;28;20050;-86
2022/12/19 06:27:50;;;;;;;70.63;38.58;;;;;;;;;;5011893;28;20080;-84
2022/12/19 06:30:16;;;;;;;75.03;40.75;;;;;;;3.51;100.00;67161.19;5000946;28;20050;-84
2022/12/19 06:32:41;;;;;;;73.43;40.60;;;;;;;3.58;100.00;67166.44;5001807;28;20042;-84
2022/12/19 06:35:07;;;;;;;72.10;39.70;;;;;;;3.58;100.00;67166.44;5005043;28;20072;-84
2022/12/19 06:37:32;;;;;;;74.78;41.03;;;;;;;3.62;100.00;67173.59;5032187;28;20051;-84
2022/12/19 06:39:58;;;;;;;68.43;35.70;;;;;;;3.65;100.00;67173.78;5005191;28;20132;-84
2022/12/19 06:42:23;;;;;;;68.65;38.20;;;;;;;3.68;100.00;67180.34;5006917;28;20085;-84
2022/12/19 06:44:53;;;;;;;52.90;27.30;;;;;;;3.78;100.00;67196.34;5004466;28;20037;-86
2022/12/19 06:47:19;;;;;;;76.07;44.92;;;;;;;;;;5006441;28;20409;-85
2022/12/19 06:49:44;;;;;;;75.60;41.38;;;;;;;3.87;100.00;67201.22;5006934;28;20046;-84
2022/12/19 06:52:09;;;;;;;67.25;40.00;;;;;;;3.93;100.00;67205.38;5014110;28;20663;-84
2022/12/19 06:54:35;;;;;;;64.50;34.15;;;;;;;3.96;100.00;67210.81;5009853;28;20635;-84
2022/12/19 06:57:00;;;;;;;63.95;34.00;;;;;;;;;;5000890;28;20030;-85
2022/12/19 06:59:25;;;;;;;77.63;41.25;;;;;;;3.98;100.00;67213.09;5007645;28;20381;-84
2022/12/19 07:02:12;;;;;;;58.33;32.03;;;;;;;4.07;100.00;67223.78;5006945;28;20042;-85
2022/12/19 07:04:39;;;;;;;71.28;37.95;;;;;;;;;;4996609;28;20105;-84
2022/12/19 07:07:05;;;;;;;64.80;33.78;;;;;;;4.11;100.00;67227.19;5012639;28;20053;-85
2022/12/19 07:09:32;;;;;;;62.70;33.35;;;;;;;4.18;100.00;67235.66;5010557;28;20081;-85
2022/12/19 07:11:57;;;;;;;68.63;41.88;;;;;;;4.22;100.00;67240.16;5014500;28;20045;-84
2022/12/19 07:14:23;;;;;;;63.53;34.65;;;;;;;;;;5005205;28;20142;-85
2022/12/19 07:16:51;;;;;;;61.15;32.60;;;;;;;4.33;100.00;67252.00;5013015;28;20041;-84
2022/12/19 07:19:17;;;;;;;50.30;24.15;;;;;;;;;;5014223;28;20042;-84
2022/12/19 07:21:42;;;;;;;49.33;25.92;;;;;;;4.41;100.00;67258.41;5016366;28;20042;-84
2022/12/19 07:24:11;;;;;;;65.35;35.97;;;;;;;4.44;100.00;67269.69;5003813;28;20096;-84
2022/12/19 07:26:36;;;;;;;66.78;39.40;;;;;;;4.46;100.00;67266.13;5009424;28;20034;-84
2022/12/19 07:29:01;;;;;;;68.03;42.47;;;;;;;;;;5001935;28;20046;-84
2022/12/19 07:31:27;;;;;;;67.35;39.50;;;;;;;4.54;100.00;67280.41;5002170;28;20092;-84
2022/12/19 07:33:53;;;;;;;57.15;33.20;;;;;;;4.58;100.00;67279.69;5012663;28;20117;-85
2022/12/19 07:36:18;;;;;;;61.45;30.52;;;;;;;4.60;100.00;67281.91;5011117;28;20046;-84
2022/12/19 07:38:44;;;;;;;67.43;37.20;;;;;;;4.65;100.00;67284.94;5002464;28;20044;-84
2022/12/19 07:41:09;;;;;;;67.82;39.00;;;;;;;4.65;100.00;67284.94;5013095;28;20513;-84
2022/12/19 07:43:35;;;;;;;61.05;34.67;;;;;;;4.70;100.00;67292.66;5003423;28;20500;-85
2022/12/19 07:46:00;;;;;;;52.80;27.35;;;;;;;4.74;100.00;67294.53;5002251;28;20165;-86
2022/12/19 07:48:27;;;;;;;63.42;38.65;;;;;;;;;;5013343;28;20042;-85
2022/12/19 07:50:53;;;;;;;58.03;34.75;;;;;;;4.83;100.00;67301.50;5010261;28;20052;-86
2022/12/19 07:53:18;;;;;;;64.88;38.33;;;;;;;4.87;100.00;67311.84;5019495;28;20397;-87
2022/12/19 07:55:43;;;;;;;65.18;33.03;;;;;;;4.88;100.00;67312.41;5023451;28;20743;-85
2022/12/19 07:58:12;;;;;;;55.53;29.50;;;;;;;4.90;100.00;67309.97;5025077;28;20053;-86
2022/12/19 08:00:37;;;;;;;62.17;38.03;;;;;;;4.93;100.00;67316.00;5012354;28;20095;-84
2022/12/19 08:03:02;;;;;;;52.70;30.02;;;;;;;;;;5015307;28;20045;-84
2022/12/19 08:05:28;;;;;;;64.32;39.47;;;;;;;5.01;100.00;67323.91;5003544;28;20046;-84
2022/12/19 08:07:54;;;;;;;60.03;32.45;;;;;;;5.05;100.00;67331.06;5002796;28;20044;-85
2022/12/19 08:10:21;;;;;;;62.90;34.75;;;;;;;5.05;100.00;67331.59;4991067;28;20143;-86
2022/12/19 08:12:47;;;;;;;56.95;32.53;;;;;;;5.05;100.00;67331.59;4990242;28;20042;-84
2022/12/19 08:15:12;;;;;;;55.17;33.45;;;;;;;;;;5006439;28;20076;-85
2022/12/19 08:17:38;;;;;;;56.13;31.20;;;;;;;5.14;100.00;67341.22;5013010;28;20049;-85
2022/12/19 08:20:05;;;;;;;58.30;30.38;;;;;;;5.13;100.00;67340.66;5010509;28;20037;-85
2022/12/19 08:22:30;;;;;;;52.45;30.23;;;;;;;5.16;100.00;67341.41;5013245;28;20042;-84
2022/12/19 08:24:56;;;;;;;56.15;31.23;;;;;;;;;;5011900;28;20510;-84
2022/12/19 08:27:22;;;;;;;54.65;34.40;;;;;;;5.23;100.00;67351.38;5005592;28;20038;-85
2022/12/19 08:29:48;;;;;;;58.63;37.28;;;;;;;5.24;100.00;67351.94;5006930;28;20034;-85
2022/12/19 08:32:14;;;;;;;55.08;34.15;;;;;;;5.24;100.00;67351.94;4996820;28;20053;-84
2022/12/19 08:34:40;;;;;;;52.80;31.80;;;;;;;5.28;100.00;67354.38;5010804;28;20430;-84
2022/12/19 08:37:05;;;;;;;49.33;32.38;;;;;;;;;;5011225;28;20046;-84
2022/12/19 08:39:30;;;;;;;49.65;27.10;;;;;;;5.34;100.00;67363.81;5010732;28;20120;-85
2022/12/19 08:41:56;;;;;;;51.95;31.35;;;;;;;5.33;100.00;67362.13;5010749;28;20048;-85
2022/12/19 08:44:21;;;;;;;54.78;31.85;;;;;;;5.32;100.00;67358.91;5008954;28;20042;-84
2022/12/19 08:46:47;;;;;;;46.25;28.23;;;;;;;5.36;100.00;67362.88;5006142;28;20489;-85
2022/12/19 08:49:12;;;;;;;46.58;29.63;;;;;;;5.36;100.00;67366.06;5010730;28;20476;-85
2022/12/19 08:51:37;;;;;;;46.03;24.60;;;;;;;5.38;100.00;67368.34;5003264;28;20041;-84
2022/12/19 08:54:03;;;;;;;45.03;23.92;;;;;;;5.39;100.00;67366.25;5007683;28;20509;-84
2022/12/19 08:56:28;;;;;;;41.15;21.35;;;;;;;;;;4987820;28;20042;-84
2022/12/19 08:58:54;;;;;;;43.58;24.85;;;;;;;5.41;100.00;67371.16;4991234;28;20054;-85
2022/12/19 09:01:22;;;;;;;45.10;24.45;;;;;;;5.42;100.00;67372.84;5002291;28;20053;-84
2022/12/19 09:03:48;;;;;;;36.60;22.20;;;;;;;;;;5009509;28;20116;-85
2022/12/19 09:06:13;;;;;;;40.85;24.02;;;;;;;;;;5001367;28;20133;-84
2022/12/19 09:08:39;;;;;;;40.97;27.38;;;;;;;5.52;100.00;67383.56;5010726;28;20042;-84
2022/12/19 09:11:16;;;;;;;44.30;24.75;;;;;;;5.55;100.00;67384.34;5001654;28;20035;-84
2022/12/19 09:13:42;;;;;;;43.53;26.63;;;;;;;5.56;100.00;67388.09;4990841;28;20034;-84
2022/12/19 09:16:18;;;;;;;43.00;25.70;;;;;;;5.58;100.00;67390.38;5006012;28;20493;-85
2022/12/19 09:18:45;;;;;;;40.53;24.75;;;;;;;5.61;100.00;67393.16;5004674;28;20038;-84
2022/12/19 09:21:12;;;;;;;34.60;21.02;;;;;;;5.65;100.00;67395.06;5006221;28;20512;-84
2022/12/19 09:23:37;;;;;;;42.50;25.45;;;;;;;5.66;100.00;67396.19;4990944;28;20062;-85
2022/12/19 09:26:06;;;;;;;39.35;22.80;;;;;;;5.69;100.00;67401.66;4989359;28;20218;-84
2022/12/19 09:28:33;;;;;;;42.88;23.23;;;;;;;5.72;100.00;67405.03;4991063;28;20125;-85
2022/12/19 09:31:06;;;;;;;38.15;22.85;;;;;;;5.77;100.00;67408.06;5007186;28;20037;-84
2022/12/19 09:33:32;;;;;;;33.03;20.05;;;;;;;;;;4999661;28;20034;-85
2022/12/19 09:35:59;;;;;;;34.95;23.05;;;;;;;5.79;100.00;67412.97;4996585;28;20081;-85
2022/12/19 09:38:25;;;;;;;36.70;23.83;;;;;;;;;;4995877;28;20050;-85
2022/12/19 09:40:56;;;;;;;35.30;22.23;;;;;;;5.84;100.00;67418.59;5004524;28;20113;-84
2022/12/19 09:43:41;;;;;;;34.00;20.10;;;;;;;5.84;100.00;67416.53;4997415;28;20038;-85
2022/12/19 09:46:34;;;;;;;32.65;21.95;;;;;;;5.86;100.00;67426.16;5003705;28;20173;-85
2022/12/19 09:49:00;;;;;;;34.50;22.15;;;;;;;5.86;100.00;67418.78;4995310;28;20038;-85
2022/12/19 09:51:37;;;;;;;34.35;21.75;;;;;;;5.89;100.00;67424.25;4997118;28;20040;-85
2022/12/19 09:54:25;;;;;;;30.33;20.83;;;;;;;5.92;100.00;67425.00;4997587;28;20532;-86
2022/12/19 09:57:00;;;;;;;30.00;17.20;;;;;;;5.93;100.00;67426.16;5002294;28;20042;-85
2022/12/19 09:59:31;;;;;;;26.27;20.58;;;;;;;;;;5011492;28;20037;-84
2022/12/19 10:02:02;;;;;;;31.48;21.92;;;;;;;;;;5009571;28;20054;-85
2022/12/19 10:04:33;;;;;;;29.00;20.23;;;;;;;6.01;100.00;67437.84;4988822;28;20379;-84
2022/12/19 10:06:58;;;;;;;31.23;16.45;;;;;;;6.05;100.00;67439.72;5003892;28;20049;-85
2022/12/19 10:09:28;;;;;;;31.13;22.02;;;;;;;;;;4993384;28;20043;-85
2022/12/19 10:12:07;;;;;;;26.23;17.17;;;;;;;6.12;100.00;67449.72;4998629;28;20141;-85
2022/12/19 10:14:48;;;;;;;28.33;17.77;;;;;;;6.18;100.00;67456.47;5012472;28;20029;-85
2022/12/19 10:17:46;;;;;;;29.33;20.05;;;;;;;6.22;100.00;67460.47;5019843;28;20062;-86
2022/12/19 10:20:32;;;;;;;25.77;18.93;;;;;;;;;;5027877;28;20100;-87
2022/12/19 10:23:16;;;;;;;28.13;16.50;;;;;;;6.26;100.00;67459.69;5028409;28;20066;-86
2022/12/19 10:25:42;;;;;;;29.60;16.08;;;;;;;;;;5026545;28;20101;-87
2022/12/19 10:28:10;;;;;;;26.88;16.60;;;;;;;6.28;100.00;67467.25;5015724;28;20260;-86
2022/12/19 10:30:37;;;;;;;29.65;21.52;;;;;;;;;;5006670;28;20460;-86
2022/12/19 10:33:16;;;;;;;29.13;18.23;;;;;;;6.28;100.00;67465.16;5004143;28;20049;-85
2022/12/19 10:35:48;;;;;;;28.20;18.95;;;;;;;6.30;100.00;67466.84;4994018;28;20047;-87
2022/12/19 10:38:18;;;;;;;32.67;21.65;;;;;;;6.29;100.00;67468.94;5002240;28;20100;-85
2022/12/19 10:40:50;;;;;;;29.60;18.45;;;;;;;6.30;100.00;67470.06;5019580;28;20056;-86
2022/12/19 10:43:43;;;;;;;31.75;18.50;;;;;;;6.30;100.00;67469.50;5012880;28;20038;-85
2022/12/19 10:46:16;;;;;;;25.65;18.05;;;;;;;6.31;100.00;67471.19;5003083;28;20038;-85
2022/12/19 10:48:42;;;;;;;30.63;21.73;;;;;;;6.30;100.00;67475.34;4998936;28;20673;-85
2022/12/19 10:51:22;;;;;;;34.40;22.05;;;;;;;6.31;100.00;67468.00;5014471;28;20045;-85
2022/12/19 10:53:56;;;;;;;30.55;19.52;;;;;;;6.31;100.00;67470.63;5005286;28;20044;-86
2022/12/19 10:56:27;;;;;;;32.15;22.23;;;;;;;6.29;100.00;67468.38;5017627;28;20060;-86
2022/12/19 10:58:57;;;;;;;35.58;23.70;;;;;;;6.32;100.00;67472.31;5007237;28;20053;-86
2022/12/19 11:01:37;;;;;;;32.22;20.75;;;;;;;;;;4999323;28;20046;-86
2022/12/19 11:04:32;;;;;;;33.50;21.83;;;;;;;6.36;100.00;67475.69;4987098;28;20050;-86
2022/12/19 11:07:06;;;;;;;31.52;17.83;;;;;;;6.33;100.00;67478.19;5018036;28;20034;-86
2022/12/19 11:09:38;;;;;;;33.45;21.48;;;;;;;;;;5007184;28;20505;-86
2022/12/19 11:12:07;;;;;;;36.72;21.40;;;;;;;6.37;100.00;67476.84;5001709;28;20053;-86
2022/12/19 11:14:35;;;;;;;38.50;24.38;;;;;;;6.35;100.00;67474.59;5007012;28;20064;-87
2022/12/19 11:17:01;;;;;;;37.03;24.30;;;;;;;6.36;100.00;67475.69;5011619;28;20038;-87
2022/12/19 11:19:35;;;;;;;37.03;20.73;;;;;;;6.36;100.00;67473.06;5003497;28;20125;-86
2022/12/19 11:22:05;;;;;;;34.63;20.55;;;;;;;;;;5000083;28;20081;-87
2022/12/19 11:24:38;;;;;;;39.15;23.23;;;;;;;6.33;100.00;67472.91;5009047;28;20041;-86
2022/12/19 11:27:36;;;;;;;36.00;23.17;;;;;;;6.34;100.00;67474.03;5001383;28;20584;-86
2022/12/19 11:30:05;;;;;;;32.92;22.35;;;;;;;;;;4990900;28;20421;-86
2022/12/19 11:32:30;;;;;;;;;;;;;;;;;;5010836;28;20041;-86
2022/12/19 11:34:59;;;;;;;34.70;20.90;;;;;;;;;;5008277;28;19920;-86
2022/12/19 11:37:46;;;;;;;30.10;21.17;;;;;;;6.44;100.00;67484.75;4994800;28;20085;-86
2022/12/19 11:40:31;;;;;;;32.00;19.77;;;;;;;;;;5003184;28;20041;-86
2022/12/19 11:43:04;;;;;;;29.58;17.85;;;;;;;6.49;100.00;67490.41;5003857;28;20095;-85
2022/12/19 11:45:53;;;;;;;36.30;22.33;;;;;;;;;;5000277;28;20055;-87
2022/12/19 11:48:27;;;;;;;26.48;17.63;;;;;;;6.49;100.00;67488.34;5011013;28;20052;-87
2022/12/19 11:51:30;;;;;;;26.42;15.95;;;;;;;6.51;100.00;67493.25;4995043;28;20042;-85
2022/12/19 11:54:33;;;;;;;29.17;17.08;;;;;;;6.53;100.00;67494.94;5002220;28;20050;-86
2022/12/19 11:56:59;;;;;;;24.83;15.45;;;;;;;6.52;100.00;67494.38;5011335;28;20069;-85
2022/12/19 11:59:36;;;;;;;26.10;14.75;;;;;;;6.58;100.00;67500.03;5005837;28;20042;-85
2022/12/19 12:02:39;;;;;;;26.77;17.05;;;;;;;6.60;100.00;67502.28;5013573;28;20058;-86
2022/12/19 12:05:40;;;;;;;29.92;16.02;;;;;;;6.59;100.00;67501.72;5009903;28;20040;-85
2022/12/19 12:08:32;;;;;;;25.42;16.85;;;;;;;6.67;100.00;67510.75;5011585;28;20045;-86
2022/12/19 12:11:33;;;;;;;24.55;15.88;;;;;;;6.70;100.00;67510.94;5017404;28;20053;-86
2022/12/19 12:14:15;;;;;;;25.13;15.10;;;;;;;;;;5004301;28;20053;-86
2022/12/19 12:16:45;;;;;;;22.77;16.75;;;;;;;6.74;100.00;67512.84;5009443;28;20053;-87